If you wish to contribute or participate in the discussions about articles you are invited to join SKYbrary as a registered user

 Actions

Seymour Airport

From SKYbrary Wiki

SEGS
Airport
ICAO: SEGS – IATA: GPS
Summary
Name Seymour Airport
Region South America and Caribbean
Territory Ecuador EC.gif
Location , Galapagos
Serving Galapagos
Elevation 63.094 m
207 ft
207 ft63.094 m
Type small airport
Coordinates 0° 27' 13.53" S, 90° 15' 57.29" W
Runways
Designator Length Width Surface ROPS
14/32 2401 m7,877.297 ft
35 m114.829 ft
ASP yes/yes


METAR
Observation SEGS 131600Z 36008KT 340V040 9999 BKN020 24/17 Q1014 A2995
Station SEYMOUR(EQ-AFB/C
Date/Time 13 October 2019 16:00:00
Wind direction 360°
Wind speed 08 kts
Lowest cloud amount broken clouds
Temperature 24°C
Dew point 17°C
Humidity 64%
QNH 1014 hPa
Weather condition n/a